Time;durP1;ratioP1;P1;durP2;ratioP2;P2;SDS_P1;SDS_P2;PMS_P1;PMS_P2;Temp;Humidity;BMP_temperature;BMP_pressure;BME280_temperature;BME280_humidity;BME280_pressure;Samples;Min_cycle;Max_cycle;Signal;HPM_P1;HPM_P2
2021/03/21 00:00:55;;;;;;;7.72;3.95;;;5.20;99.90;;;;;;12371609;28;20133;-43
2021/03/21 00:06:57;;;;;;;9.93;4.63;;;5.20;99.90;;;;;;12366351;28;20521;-42
2021/03/21 00:12:59;;;;;;;5.32;4.07;;;5.20;99.90;;;;;;12367110;28;20495;-42
2021/03/21 00:19:01;;;;;;;6.18;4.15;;;5.10;99.90;;;;;;12367161;28;20054;-42
2021/03/21 00:25:09;;;;;;;6.18;4.40;;;5.10;99.90;;;;;;12369322;28;20125;-42
2021/03/21 00:31:13;;;;;;;6.18;4.28;;;5.10;99.90;;;;;;12366132;28;20213;-41
2021/03/21 00:37:14;;;;;;;9.23;4.63;;;5.10;99.90;;;;;;12363790;28;20050;-43
2021/03/21 00:43:16;;;;;;;7.03;4.45;;;5.10;99.90;;;;;;12375550;28;20783;-42
2021/03/21 00:49:18;;;;;;;6.53;3.90;;;5.10;99.90;;;;;;12366592;28;20054;-43
2021/03/21 00:55:20;;;;;;;8.13;3.63;;;5.00;99.90;;;;;;12363960;28;20565;-42
2021/03/21 01:01:21;;;;;;;4.68;3.20;;;5.00;99.90;;;;;;12361542;28;20050;-43
2021/03/21 01:07:23;;;;;;;5.53;3.35;;;5.00;99.90;;;;;;12367804;28;20082;-42
2021/03/21 01:13:25;;;;;;;6.00;3.88;;;4.90;99.90;;;;;;12375137;28;20449;-42
2021/03/21 01:19:27;;;;;;;5.13;4.10;;;5.00;99.90;;;;;;12376660;28;20103;-43
2021/03/21 01:25:28;;;;;;;4.70;3.45;;;4.90;99.90;;;;;;12378205;28;20141;-44
2021/03/21 01:31:30;;;;;;;6.95;3.75;;;5.00;99.90;;;;;;12371384;28;20133;-43
2021/03/21 01:37:31;;;;;;;5.60;4.40;;;5.00;99.90;;;;;;12377784;28;20050;-42
2021/03/21 01:43:37;;;;;;;6.93;4.72;;;5.00;99.90;;;;;;12378277;28;20050;-43
2021/03/21 01:49:44;;;;;;;7.13;5.50;;;5.00;99.90;;;;;;12377800;28;20524;-44
2021/03/21 01:55:46;;;;;;;9.20;6.75;;;5.00;99.90;;;;;;12380754;28;20053;-42
2021/03/21 02:01:51;;;;;;;11.07;7.75;;;5.10;99.90;;;;;;12366487;28;20049;-43
2021/03/21 02:08:05;;;;;;;10.15;7.07;;;5.10;99.90;;;;;;12367626;28;20050;-43
2021/03/21 02:14:44;;;;;;;10.73;7.00;;;5.20;99.90;;;;;;12369295;28;20101;-42
2021/03/21 02:21:01;;;;;;;9.38;7.38;;;5.00;99.90;;;;;;12366258;28;20140;-44
2021/03/21 02:27:26;;;;;;;9.73;7.03;;;5.10;99.90;;;;;;12377850;28;20058;-42
2021/03/21 02:33:32;;;;;;;11.32;6.93;;;5.20;99.90;;;;;;12368096;28;20667;-43
2021/03/21 02:39:53;;;;;;;10.15;6.93;;;5.30;99.90;;;;;;12373469;28;20053;-42
2021/03/21 02:45:59;;;;;;;11.27;7.40;;;5.30;99.90;;;;;;12377384;28;20957;-42
2021/03/21 02:52:07;;;;;;;9.90;6.57;;;5.30;99.90;;;;;;12365690;28;20049;-42
2021/03/21 02:58:29;;;;;;;9.65;6.32;;;5.30;99.90;;;;;;12379130;28;20846;-42
2021/03/21 03:04:35;;;;;;;8.05;5.93;;;5.30;99.90;;;;;;12361967;28;20042;-43
2021/03/21 03:11:04;;;;;;;9.00;5.80;;;5.20;99.90;;;;;;12366728;28;20050;-42
2021/03/21 03:17:15;;;;;;;8.52;5.80;;;5.20;99.90;;;;;;12374432;28;20120;-42
2021/03/21 03:23:44;;;;;;;7.45;5.18;;;5.20;99.90;;;;;;12369317;28;20046;-42
2021/03/21 03:29:56;;;;;;;9.57;6.70;;;5.20;99.90;;;;;;12369157;28;20085;-42
2021/03/21 03:35:58;;;;;;;7.97;5.68;;;5.30;99.90;;;;;;12367732;28;20057;-42
2021/03/21 03:42:23;;;;;;;8.10;5.10;;;5.30;99.90;;;;;;12369549;28;20057;-42
2021/03/21 03:48:31;;;;;;;7.30;5.40;;;5.30;99.90;;;;;;12368152;28;20070;-42
2021/03/21 03:54:36;;;;;;;6.93;4.97;;;5.30;99.90;;;;;;12368650;28;20146;-42
2021/03/21 04:01:01;;;;;;;7.00;4.68;;;5.40;99.90;;;;;;12369591;28;20061;-42
2021/03/21 04:07:12;;;;;;;;;;;5.40;99.90;;;;;;12367604;28;20054;-42
2021/03/21 04:13:36;;;;;;;5.88;4.40;;;5.40;99.90;;;;;;12370838;28;19971;-42
2021/03/21 04:19:45;;;;;;;6.20;4.78;;;5.40;99.90;;;;;;12369817;28;20560;-46
2021/03/21 04:25:52;;;;;;;8.13;4.32;;;5.30;99.90;;;;;;12357740;28;21480;-42
2021/03/21 04:31:57;;;;;;;6.47;3.85;;;5.40;99.90;;;;;;12366300;28;20684;-43
2021/03/21 04:38:02;;;;;;;6.45;4.28;;;5.40;99.90;;;;;;12368102;28;20635;-42
2021/03/21 04:44:17;;;;;;;4.53;3.58;;;5.40;99.90;;;;;;12370345;28;20057;-41
2021/03/21 04:50:18;;;;;;;;;;;5.40;99.90;;;;;;12368641;28;20077;-42
2021/03/21 04:56:28;;;;;;;4.90;3.33;;;5.40;99.90;;;;;;12384032;28;20044;-42
2021/03/21 05:02:33;;;;;;;6.28;3.10;;;5.40;99.90;;;;;;12376600;28;20141;-43
2021/03/21 05:08:49;;;;;;;6.05;2.72;;;5.40;99.90;;;;;;12367430;28;20637;-42
2021/03/21 05:15:34;;;;;;;5.00;2.60;;;5.40;99.90;;;;;;12377934;28;20058;-42
2021/03/21 05:21:57;;;;;;;3.60;2.20;;;5.50;99.90;;;;;;12370005;28;20046;-43
2021/03/21 05:28:38;;;;;;;4.15;2.00;;;5.40;99.90;;;;;;12383684;28;20068;-42
2021/03/21 05:34:41;;;;;;;4.25;1.92;;;5.50;99.90;;;;;;12378188;28;20081;-43
2021/03/21 05:41:00;;;;;;;6.70;2.33;;;5.50;99.90;;;;;;12369505;28;20045;-44
2021/03/21 05:47:32;;;;;;;4.10;2.10;;;5.50;99.90;;;;;;12361537;28;20461;-42
2021/03/21 05:53:53;;;;;;;5.97;2.15;;;5.50;99.90;;;;;;12363014;28;20533;-44
2021/03/21 05:59:57;;;;;;;6.75;2.10;;;5.50;99.90;;;;;;12369016;28;20103;-43
2021/03/21 06:06:17;;;;;;;7.65;2.20;;;5.60;99.90;;;;;;12373630;28;20057;-42
2021/03/21 06:12:37;;;;;;;5.82;2.60;;;5.60;99.90;;;;;;12370613;28;20084;-42
2021/03/21 06:18:50;;;;;;;4.97;2.42;;;5.60;99.90;;;;;;12358150;28;20085;-42
2021/03/21 06:25:02;;;;;;;3.85;1.80;;;5.60;99.90;;;;;;12369636;28;20049;-43
2021/03/21 06:31:06;;;;;;;4.57;2.20;;;5.60;99.90;;;;;;12370900;28;20046;-42
2021/03/21 06:37:14;;;;;;;4.50;2.10;;;5.70;99.90;;;;;;12373075;28;20145;-42
2021/03/21 06:43:53;;;;;;;5.63;2.10;;;5.70;99.90;;;;;;12360272;28;20434;-42
2021/03/21 06:50:14;;;;;;;4.80;1.95;;;5.80;99.90;;;;;;12361578;28;20123;-42
2021/03/21 06:56:32;;;;;;;8.07;1.70;;;5.70;99.90;;;;;;12368831;28;20092;-44
2021/03/21 07:03:18;;;;;;;5.03;1.75;;;5.60;99.90;;;;;;12372174;28;20046;-43
2021/03/21 07:10:02;;;;;;;5.50;2.03;;;5.60;99.90;;;;;;12351717;28;20050;-42
2021/03/21 07:16:32;;;;;;;11.05;1.90;;;5.70;99.90;;;;;;12366287;28;20116;-43
2021/03/21 07:23:08;;;;;;;15.77;2.00;;;5.70;99.90;;;;;;12360981;28;20042;-42
2021/03/21 07:29:47;;;;;;;14.82;2.28;;;5.50;99.90;;;;;;12369028;28;20157;-42
2021/03/21 07:36:30;;;;;;;20.92;2.53;;;5.60;99.90;;;;;;12371975;28;20049;-42
2021/03/21 07:42:50;;;;;;;19.90;2.65;;;5.60;99.90;;;;;;12373393;28;20764;-42
2021/03/21 07:49:36;;;;;;;20.67;2.90;;;5.70;99.90;;;;;;12391636;28;20058;-42
2021/03/21 07:55:53;;;;;;;16.85;2.10;;;5.80;99.90;;;;;;12359444;28;20065;-43
2021/03/21 08:01:54;;;;;;;18.52;2.40;;;5.80;99.90;;;;;;12359499;28;20501;-42
2021/03/21 08:07:57;;;;;;;28.25;4.65;;;5.70;99.90;;;;;;12368671;28;20050;-42
2021/03/21 08:14:12;;;;;;;27.38;4.28;;;5.80;99.90;;;;;;12356577;28;20058;-42
2021/03/21 08:20:22;;;;;;;24.30;3.85;;;5.60;99.90;;;;;;12363728;28;20056;-42
2021/03/21 08:26:30;;;;;;;28.52;4.28;;;5.60;99.90;;;;;;12369620;28;20057;-41
2021/03/21 08:32:34;;;;;;;21.52;4.15;;;5.60;99.90;;;;;;12374845;28;20050;-42
2021/03/21 08:38:37;;;;;;;24.73;3.60;;;5.50;99.90;;;;;;12375510;28;20087;-42
2021/03/21 08:44:43;;;;;;;30.48;4.15;;;5.60;99.90;;;;;;12381412;28;20054;-41
2021/03/21 08:50:49;;;;;;;27.20;4.60;;;5.70;99.90;;;;;;12371169;28;20045;-41
2021/03/21 08:57:07;;;;;;;20.80;3.60;;;5.60;99.90;;;;;;12374707;28;20055;-42
2021/03/21 09:03:29;;;;;;;27.73;3.95;;;5.70;99.90;;;;;;12368340;28;20054;-43
2021/03/21 09:09:34;;;;;;;35.55;3.78;;;5.90;99.90;;;;;;12373950;28;20070;-42
2021/03/21 09:15:41;;;;;;;28.02;4.70;;;6.00;99.90;;;;;;12371040;28;20137;-42
2021/03/21 09:21:46;;;;;;;31.45;4.47;;;5.90;99.90;;;;;;12378209;28;21022;-43
2021/03/21 09:27:48;;;;;;;20.52;3.55;;;5.80;99.90;;;;;;12380036;28;20085;-42
2021/03/21 09:34:05;;;;;;;30.05;5.32;;;5.90;99.90;;;;;;12376652;28;20883;-42
2021/03/21 09:40:30;;;;;;;32.63;4.38;;;5.90;99.90;;;;;;12371495;28;20085;-42
2021/03/21 09:46:55;;;;;;;25.85;3.58;;;5.90;99.90;;;;;;12372953;28;20375;-43
2021/03/21 09:53:13;;;;;;;29.05;4.35;;;6.10;99.90;;;;;;12364394;28;20050;-42
2021/03/21 09:59:32;;;;;;;32.72;4.60;;;6.10;99.90;;;;;;12378606;28;20149;-42
2021/03/21 10:06:06;;;;;;;27.20;5.22;;;6.00;99.90;;;;;;12372484;28;20057;-42
2021/03/21 10:12:11;;;;;;;21.13;4.22;;;6.10;99.90;;;;;;12374844;28;20539;-42
2021/03/21 10:18:43;;;;;;;31.95;5.07;;;6.00;99.90;;;;;;12375161;28;20057;-45
2021/03/21 10:24:50;;;;;;;28.58;4.70;;;6.10;99.90;;;;;;12369058;28;20050;-42
2021/03/21 10:31:34;;;;;;;28.10;4.80;;;6.10;99.90;;;;;;12375347;28;20050;-42
2021/03/21 10:37:41;;;;;;;35.38;5.32;;;6.20;99.90;;;;;;12376200;28;20065;-42
2021/03/21 10:44:00;;;;;;;29.25;4.72;;;6.40;99.90;;;;;;12368639;28;20050;-42
2021/03/21 10:50:23;;;;;;;26.17;4.43;;;6.50;99.90;;;;;;12361761;28;20142;-43
2021/03/21 10:56:27;;;;;;;29.00;4.90;;;6.50;99.90;;;;;;12373443;28;20696;-42
2021/03/21 11:02:28;;;;;;;33.80;5.20;;;6.50;99.90;;;;;;12364288;28;20056;-42
2021/03/21 11:08:31;;;;;;;32.63;5.47;;;6.60;99.90;;;;;;12368492;28;20146;-44
2021/03/21 11:14:36;;;;;;;27.35;5.15;;;6.60;99.90;;;;;;12364810;28;20054;-42
2021/03/21 11:20:38;;;;;;;30.58;5.20;;;6.60;99.90;;;;;;12360104;28;20050;-43
2021/03/21 11:26:40;;;;;;;21.70;4.50;;;6.70;99.90;;;;;;12368887;28;20137;-42
2021/03/21 11:32:42;;;;;;;32.08;5.07;;;6.80;99.90;;;;;;12368584;28;20050;-43
2021/03/21 11:38:46;;;;;;;27.60;4.30;;;6.90;99.90;;;;;;12369182;28;20442;-44
2021/03/21 11:44:50;;;;;;;28.98;4.40;;;6.80;99.90;;;;;;12371712;28;20045;-43
2021/03/21 11:50:55;;;;;;;26.83;5.07;;;6.90;99.90;;;;;;12362704;28;20093;-42
2021/03/21 11:57:00;;;;;;;34.40;4.75;;;7.10;99.90;;;;;;12368612;28;20140;-42
2021/03/21 12:03:07;;;;;;;;;;;7.10;99.90;;;;;;12370686;28;20121;-42
2021/03/21 12:09:32;;;;;;;33.80;5.22;;;7.00;99.90;;;;;;12368594;28;19929;-44
2021/03/21 12:15:38;;;;;;;36.28;4.80;;;7.00;99.90;;;;;;12366039;28;20530;-43
2021/03/21 12:21:48;;;;;;;25.73;4.43;;;7.30;99.90;;;;;;12370942;28;20050;-42
2021/03/21 12:27:53;;;;;;;32.88;4.40;;;7.40;99.90;;;;;;12373090;28;20064;-42
2021/03/21 12:33:56;;;;;;;29.15;3.97;;;7.30;99.90;;;;;;12369660;28;20068;-43
2021/03/21 12:40:05;;;;;;;34.13;6.15;;;7.40;99.90;;;;;;12362886;28;20093;-42
2021/03/21 12:46:12;;;;;;;29.35;5.28;;;7.60;99.90;;;;;;12366027;28;20108;-42
2021/03/21 12:52:22;;;;;;;31.10;4.95;;;7.80;99.90;;;;;;12365907;28;20088;-42
2021/03/21 12:58:25;;;;;;;27.05;4.60;;;7.50;99.90;;;;;;12362702;28;20104;-42
2021/03/21 13:04:27;;;;;;;25.92;4.70;;;7.70;99.90;;;;;;12360598;28;20464;-43
2021/03/21 13:10:32;;;;;;;27.70;4.50;;;7.90;99.90;;;;;;12372706;28;20120;-43
2021/03/21 13:16:33;;;;;;;32.00;4.80;;;7.80;99.90;;;;;;12372908;28;20152;-42
2021/03/21 13:22:36;;;;;;;38.60;5.22;;;7.70;99.90;;;;;;12375161;28;20054;-43
2021/03/21 13:28:37;;;;;;;30.95;4.53;;;7.70;99.90;;;;;;12371785;28;20046;-41
2021/03/21 13:34:38;;;;;;;19.13;3.85;;;7.60;99.90;;;;;;12376322;28;20590;-43
2021/03/21 13:40:51;;;;;;;27.80;4.72;;;7.80;99.90;;;;;;12374646;28;20474;-41
2021/03/21 13:46:53;;;;;;;22.08;3.42;;;7.90;99.90;;;;;;12384598;28;20050;-44
2021/03/21 13:52:55;;;;;;;24.00;3.58;;;7.90;99.90;;;;;;12375974;28;20062;-42
2021/03/21 13:58:56;;;;;;;22.83;4.72;;;7.80;99.90;;;;;;12373667;28;20112;-46
2021/03/21 14:04:58;;;;;;;25.50;3.70;;;7.70;99.90;;;;;;12378635;28;20060;-41
2021/03/21 14:11:14;;;;;;;23.45;4.10;;;7.90;99.90;;;;;;12374509;28;20082;-42
2021/03/21 14:17:15;;;;;;;23.48;4.72;;;7.70;99.90;;;;;;12377707;28;20054;-42
2021/03/21 14:23:19;;;;;;;27.00;4.00;;;7.80;99.90;;;;;;12367382;28;20078;-40
2021/03/21 14:29:21;;;;;;;19.30;3.50;;;8.30;99.90;;;;;;12377319;28;20133;-41
2021/03/21 14:35:29;;;;;;;21.23;3.83;;;8.10;99.90;;;;;;12373612;28;20724;-41
2021/03/21 14:41:36;;;;;;;22.43;3.10;;;7.80;99.90;;;;;;12375686;28;20089;-41
2021/03/21 14:47:38;;;;;;;22.02;3.20;;;8.10;99.90;;;;;;12372684;28;20128;-41
2021/03/21 14:53:40;;;;;;;21.50;4.53;;;8.00;99.90;;;;;;12371178;28;20794;-42
2021/03/21 14:59:42;;;;;;;21.67;3.35;;;8.00;99.90;;;;;;12368935;28;20046;-40
2021/03/21 15:05:44;;;;;;;14.73;2.97;;;7.90;99.90;;;;;;12364472;28;20150;-40
2021/03/21 15:11:58;;;;;;;21.67;3.38;;;7.90;99.90;;;;;;12365627;28;20053;-41
2021/03/21 15:18:00;;;;;;;18.92;2.92;;;7.70;99.90;;;;;;12372423;28;20059;-41
2021/03/21 15:24:02;;;;;;;20.58;3.55;;;7.60;99.90;;;;;;12367198;28;20049;-42
2021/03/21 15:30:06;;;;;;;20.13;2.83;;;7.80;99.90;;;;;;12372864;28;20097;-41
2021/03/21 15:36:08;;;;;;;20.92;4.10;;;7.80;99.90;;;;;;12366110;28;20050;-40
2021/03/21 15:42:21;;;;;;;22.92;3.30;;;7.80;99.90;;;;;;12376993;28;20058;-41
2021/03/21 15:48:23;;;;;;;17.40;3.47;;;7.60;99.90;;;;;;12359297;28;20450;-43
2021/03/21 15:54:24;;;;;;;16.90;3.45;;;7.50;99.90;;;;;;12368949;28;20060;-40
2021/03/21 16:00:31;;;;;;;15.48;2.97;;;7.30;99.90;;;;;;12370257;28;20137;-41
2021/03/21 16:06:33;;;;;;;20.98;4.30;;;7.30;99.90;;;;;;12363985;28;20540;-41
2021/03/21 16:12:44;;;;;;;19.42;3.45;;;7.10;99.90;;;;;;12375477;28;20046;-41
2021/03/21 16:18:46;;;;;;;25.85;3.35;;;7.00;99.90;;;;;;12366186;28;20778;-40
2021/03/21 16:24:52;;;;;;;20.88;3.67;;;6.90;99.90;;;;;;12369669;28;20053;-42
2021/03/21 16:30:54;;;;;;;23.92;3.10;;;6.80;99.90;;;;;;12364139;28;20169;-43
2021/03/21 16:36:55;;;;;;;20.15;3.20;;;6.70;99.90;;;;;;12369458;28;20153;-42
2021/03/21 16:43:11;;;;;;;22.42;3.65;;;6.60;99.90;;;;;;12379084;28;20081;-41
2021/03/21 16:49:13;;;;;;;13.52;2.13;;;6.60;99.90;;;;;;12377408;28;20076;-41
2021/03/21 16:55:14;;;;;;;16.63;2.60;;;6.50;99.90;;;;;;12370499;28;20431;-43
2021/03/21 17:01:16;;;;;;;18.95;2.78;;;6.40;99.90;;;;;;12377610;28;20379;-41
2021/03/21 17:07:18;;;;;;;20.88;4.25;;;6.30;99.90;;;;;;12376577;28;20054;-41
2021/03/21 17:13:31;;;;;;;18.83;3.45;;;6.30;99.90;;;;;;12372907;28;20133;-42
2021/03/21 17:19:37;;;;;;;14.85;2.97;;;6.20;99.90;;;;;;12372951;28;20046;-41
2021/03/21 17:25:40;;;;;;;19.73;3.00;;;6.10;99.90;;;;;;12380155;28;20140;-41
2021/03/21 17:31:42;;;;;;;16.38;3.22;;;6.00;99.90;;;;;;12381471;28;20046;-42
2021/03/21 17:37:43;;;;;;;18.33;2.83;;;6.00;99.90;;;;;;12376033;28;20057;-41
2021/03/21 17:43:54;;;;;;;22.85;4.60;;;5.90;99.90;;;;;;12375735;28;20046;-42
2021/03/21 17:49:56;;;;;;;20.73;3.13;;;5.80;99.90;;;;;;12376185;28;20061;-41
2021/03/21 17:56:21;;;;;;;18.65;3.30;;;5.80;99.90;;;;;;12378382;28;20046;-41
2021/03/21 18:02:22;;;;;;;18.90;3.10;;;5.80;99.90;;;;;;12360505;28;20112;-41
2021/03/21 18:08:24;;;;;;;20.70;4.18;;;5.80;99.90;;;;;;12364266;28;20601;-41
2021/03/21 18:14:25;;;;;;;22.33;3.65;;;5.80;99.90;;;;;;12358961;28;20061;-41
2021/03/21 18:20:27;;;;;;;21.40;4.28;;;5.70;99.90;;;;;;12363266;28;20974;-41
2021/03/21 18:26:28;;;;;;;20.23;3.08;;;5.70;99.90;;;;;;12360625;28;20039;-41
2021/03/21 18:32:29;;;;;;;18.83;3.10;;;5.60;99.90;;;;;;12372370;28;20584;-41
2021/03/21 18:38:32;;;;;;;27.10;3.17;;;5.60;99.90;;;;;;12371980;28;20064;-46
2021/03/21 18:44:40;;;;;;;19.08;2.92;;;5.60;99.90;;;;;;12361280;28;20048;-40
2021/03/21 18:50:42;;;;;;;19.60;3.13;;;5.40;99.90;;;;;;12362009;28;20790;-41
2021/03/21 18:56:44;;;;;;;15.35;2.83;;;5.40;99.90;;;;;;12356417;28;20050;-41
2021/03/21 19:02:45;;;;;;;19.25;4.18;;;5.30;99.90;;;;;;12367911;28;20472;-42
2021/03/21 19:08:47;;;;;;;24.98;4.95;;;5.40;99.90;;;;;;12361997;28;20057;-41
2021/03/21 19:15:04;;;;;;;16.83;2.83;;;5.40;99.90;;;;;;12341552;28;21492;-40
2021/03/21 19:21:06;;;;;;;25.92;4.57;;;5.30;99.90;;;;;;12354956;28;20053;-43
2021/03/21 19:27:08;;;;;;;15.02;3.28;;;5.30;99.90;;;;;;12365691;28;20577;-42
2021/03/21 19:33:11;;;;;;;28.35;4.45;;;5.20;99.90;;;;;;12368227;28;20415;-43
2021/03/21 19:39:14;;;;;;;21.70;3.40;;;5.30;99.90;;;;;;12359197;28;20070;-42
2021/03/21 19:45:32;;;;;;;21.88;3.20;;;5.30;99.90;;;;;;12373269;28;20264;-42
2021/03/21 19:51:34;;;;;;;29.40;4.13;;;5.20;99.90;;;;;;12371330;28;20425;-42
2021/03/21 19:57:35;;;;;;;18.55;3.42;;;5.20;99.90;;;;;;12377829;28;20049;-42
2021/03/21 20:03:37;;;;;;;20.55;3.17;;;5.10;99.90;;;;;;12373051;28;20085;-43
2021/03/21 20:09:39;;;;;;;16.52;2.47;;;5.20;99.90;;;;;;12368144;28;20155;-42
2021/03/21 20:15:52;;;;;;;17.70;3.00;;;5.10;99.90;;;;;;12370111;28;20133;-42
2021/03/21 20:21:54;;;;;;;24.45;3.63;;;5.20;99.90;;;;;;12370515;28;20520;-42
2021/03/21 20:27:56;;;;;;;21.08;3.13;;;5.20;99.90;;;;;;12373304;28;20473;-42
2021/03/21 20:33:57;;;;;;;20.80;3.05;;;5.10;99.90;;;;;;12368285;28;20722;-42
2021/03/21 20:39:58;;;;;;;18.50;3.42;;;5.00;99.90;;;;;;12373480;28;20707;-43
2021/03/21 20:46:14;;;;;;;27.83;3.72;;;5.20;99.90;;;;;;12370745;28;20426;-42
2021/03/21 20:52:16;;;;;;;23.45;3.25;;;5.20;99.90;;;;;;12368201;28;20043;-44
2021/03/21 20:58:17;;;;;;;15.73;2.88;;;5.20;99.90;;;;;;12381923;28;20091;-44
2021/03/21 21:04:19;;;;;;;17.33;3.00;;;5.10;99.90;;;;;;12372631;28;20074;-43
2021/03/21 21:10:24;;;;;;;16.73;2.97;;;5.10;99.90;;;;;;12372311;28;20058;-43
2021/03/21 21:16:38;;;;;;;17.88;2.78;;;5.10;99.90;;;;;;12370861;28;20475;-43
2021/03/21 21:22:40;;;;;;;23.92;3.40;;;5.10;99.90;;;;;;12369598;28;20054;-43
2021/03/21 21:28:42;;;;;;;16.48;2.63;;;5.10;99.90;;;;;;12378953;28;20164;-42
2021/03/21 21:34:43;;;;;;;22.77;2.55;;;5.00;99.90;;;;;;12385728;28;20100;-43
2021/03/21 21:40:46;;;;;;;18.88;2.85;;;5.10;99.90;;;;;;12380131;28;20072;-43
2021/03/21 21:47:07;;;;;;;19.02;3.63;;;5.00;99.90;;;;;;12371208;28;20054;-43
2021/03/21 21:53:10;;;;;;;20.45;2.78;;;5.10;99.90;;;;;;12371047;28;20171;-43
2021/03/21 21:59:11;;;;;;;15.50;2.97;;;5.10;99.90;;;;;;12381996;28;20062;-42
2021/03/21 22:05:13;;;;;;;19.38;2.67;;;5.10;99.90;;;;;;12383191;28;20449;-44
2021/03/21 22:11:15;;;;;;;12.98;2.42;;;5.00;99.90;;;;;;12375428;28;20045;-44
2021/03/21 22:17:28;;;;;;;16.48;3.72;;;5.00;99.90;;;;;;12370710;28;20133;-44
2021/03/21 22:23:38;;;;;;;19.02;3.10;;;5.00;99.90;;;;;;12378475;28;20043;-43
2021/03/21 22:29:39;;;;;;;24.42;2.80;;;5.00;99.90;;;;;;12377364;28;20133;-42
2021/03/21 22:35:40;;;;;;;17.95;2.72;;;5.00;99.90;;;;;;12378707;28;20218;-41
2021/03/21 22:41:42;;;;;;;14.90;2.58;;;4.90;99.90;;;;;;12378682;28;20125;-43
2021/03/21 22:47:51;;;;;;;21.52;3.35;;;4.90;99.90;;;;;;12366338;28;20107;-42
2021/03/21 22:53:53;;;;;;;16.90;2.72;;;4.90;99.90;;;;;;12375483;28;21063;-42
2021/03/21 22:59:57;;;;;;;21.00;3.83;;;4.90;99.90;;;;;;12374266;28;20049;-43
2021/03/21 23:05:59;;;;;;;28.40;5.60;;;4.80;99.90;;;;;;12372386;28;20046;-41
2021/03/21 23:12:00;;;;;;;11.82;2.50;;;4.80;99.90;;;;;;12369585;28;20129;-42
2021/03/21 23:18:19;;;;;;;20.67;2.80;;;4.80;99.90;;;;;;12371522;28;20046;-43
2021/03/21 23:24:20;;;;;;;19.15;2.60;;;4.70;99.90;;;;;;12373821;28;20140;-42
2021/03/21 23:30:26;;;;;;;19.00;2.60;;;4.70;99.90;;;;;;12371905;28;20046;-42
2021/03/21 23:36:27;;;;;;;23.48;3.47;;;4.70;99.90;;;;;;12372789;28;20710;-42
2021/03/21 23:42:29;;;;;;;21.80;3.08;;;4.70;99.90;;;;;;12369644;28;20054;-44
2021/03/21 23:48:39;;;;;;;16.27;3.17;;;4.60;99.90;;;;;;12377900;28;20141;-43
2021/03/21 23:54:42;;;;;;;25.35;3.35;;;4.70;99.90;;;;;;12355665;28;20054;-42
